Aeroporto :
LOGIN :

Iscrizione | Disclaimer

   EN    FR    IT 

 










Sommario :    VFR   VFR Marginale   IFR   IFR Intensivo   IFR Molto Intensivo
Visibilità : 
Base nubi : 
>= 8 km
>= 3000ft
5 / 8 km
1000 / 3000 ft
1500m / 5 km
500 / 1000 ft
800 / 1500m
200 / 500 ft
< 800m
< 200 ft
Simboli :   Temporali  Nebbia  Neve Forte  Precipitazioni Forti  Vento > 20 kt
SIGMETs :   Varie  Temporali  Ghiacco  Turbolenza  Onda orograficha  Ceneri Vulcaniche






- Altitudine del aeroporto : 235 ft
- Codice IATA : BZG


EPBY - Bydgoszcz

ULTIMO METAR :
  • 190500Z VRB01KT CAVOK 16/14 Q1023

METARs OBSOLETI :
  • 190430Z VRB01KT CAVOK 14/12 Q1023
  • 190400Z VRB01KT CAVOK 13/11 Q1023
  • 190330Z VRB01KT CAVOK 11/11 Q1023
  • 190300Z 26002KT CAVOK 12/11 Q1023
  • 190230Z VRB01KT CAVOK 11/10 Q1023
  • 190200Z 16002KT CAVOK 11/10 Q1023
  • 190130Z 24002KT CAVOK 13/11 Q1023
  • 190100Z VRB01KT CAVOK 13/11 Q1023
  • 190030Z 25002KT CAVOK 14/11 Q1023

TAF TAF EPBY
Valido dal 19 a 00 ore il 20 a 00 ore UTC


182330Z 1900/1924 VRB02KT CAVOK
PROB30
TEMPO 1901/1905 4000 BR SCT010



MetMap, La meteo Aeronautica in un colpo d'occhio ! - Copyright ORBIFLY Dicembre 2007 - Disclaimer

ORBIFLY MET'MAP TEAM :

Programmazione e sviluppo : Alexandra Zaïnal
Concezione : Baudouin d'Aumeries
Supporto tecnico e logistico : Manuel Goepfert
Aiuto : Marc-Olivier Méhu
Aiuto per la traduzione : Arnaldo La Scala




FONTI E CREDITI :

   NOAA